Time;durP1;ratioP1;P1;durP2;ratioP2;P2;SDS_P1;SDS_P2;PMS_P1;PMS_P2;Temp;Humidity;BMP_temperature;BMP_pressure;BME280_temperature;BME280_humidity;BME280_pressure;Samples;Min_cycle;Max_cycle;Signal;HPM_P1;HPM_P2
2021/10/31 00:02:03;;;;;;;23.25;12.95;;;12.50;99.90;;;;;;4985939;28;20037;-86
2021/10/31 00:04:29;;;;;;;21.02;11.90;;;12.40;99.90;;;;;;4995734;28;20026;-85
2021/10/31 00:06:55;;;;;;;20.98;12.38;;;12.40;99.90;;;;;;5030783;28;20075;-86
2021/10/31 00:09:21;;;;;;;23.08;12.15;;;12.40;99.90;;;;;;5004155;28;20378;-86
2021/10/31 00:11:46;;;;;;;22.35;12.20;;;12.40;99.90;;;;;;5025342;28;20067;-87
2021/10/31 00:14:12;;;;;;;22.67;12.13;;;12.40;99.90;;;;;;5016524;28;20390;-86
2021/10/31 00:16:38;;;;;;;23.15;12.07;;;12.40;99.90;;;;;;5016885;28;20064;-86
2021/10/31 00:19:04;;;;;;;19.73;11.70;;;12.40;99.90;;;;;;5001704;28;20021;-86
2021/10/31 00:21:29;;;;;;;20.23;11.00;;;12.40;99.90;;;;;;4984855;28;20160;-86
2021/10/31 00:23:55;;;;;;;20.85;11.35;;;12.40;99.90;;;;;;4999817;28;20017;-86
2021/10/31 00:26:22;;;;;;;19.23;11.07;;;12.40;99.90;;;;;;5015152;28;20136;-85
2021/10/31 00:28:48;;;;;;;19.67;10.90;;;12.30;99.90;;;;;;4997112;28;20478;-86
2021/10/31 00:31:14;;;;;;;17.33;10.95;;;12.30;99.90;;;;;;5034797;28;20024;-86
2021/10/31 00:33:39;;;;;;;19.27;11.02;;;12.30;99.90;;;;;;5006701;28;20029;-87
2021/10/31 00:36:05;;;;;;;22.17;11.18;;;12.30;99.90;;;;;;4998012;28;20470;-85
2021/10/31 00:38:31;;;;;;;19.35;10.55;;;12.40;99.90;;;;;;5020644;28;20426;-88
2021/10/31 00:40:57;;;;;;;18.00;9.88;;;12.30;99.90;;;;;;5018107;28;20037;-86
2021/10/31 00:43:23;;;;;;;15.07;10.30;;;12.30;99.90;;;;;;5017476;28;20342;-86
2021/10/31 00:45:49;;;;;;;17.27;10.88;;;12.30;99.90;;;;;;5019587;28;20033;-86
2021/10/31 00:48:15;;;;;;;17.15;9.82;;;12.30;99.90;;;;;;5032629;28;20017;-86
2021/10/31 00:50:43;;;;;;;15.68;9.43;;;12.30;99.90;;;;;;5018241;28;20517;-86
2021/10/31 00:53:09;;;;;;;18.60;10.20;;;12.30;99.90;;;;;;5013118;28;20025;-87
2021/10/31 00:55:38;;;;;;;19.88;10.68;;;12.30;99.90;;;;;;5033460;28;20032;-85
2021/10/31 00:58:03;;;;;;;15.07;9.88;;;12.30;99.90;;;;;;5015841;28;20021;-86
2021/10/31 01:00:29;;;;;;;18.27;10.65;;;12.30;99.90;;;;;;5033316;28;20028;-86
2021/10/31 01:02:55;;;;;;;20.48;11.82;;;12.30;99.90;;;;;;5018806;28;20484;-86
2021/10/31 01:05:26;;;;;;;22.63;11.73;;;12.30;99.90;;;;;;5020646;28;20041;-87
2021/10/31 01:07:59;;;;;;;17.17;10.85;;;12.20;99.90;;;;;;5016070;28;20024;-86
2021/10/31 01:10:50;;;;;;;20.00;11.27;;;12.20;99.90;;;;;;5016280;28;20029;-86
2021/10/31 01:13:16;;;;;;;18.88;11.10;;;12.10;99.90;;;;;;5014916;28;20378;-86
2021/10/31 01:16:02;;;;;;;17.92;10.30;;;12.10;99.90;;;;;;5016848;28;20275;-86
2021/10/31 01:18:43;;;;;;;19.00;9.95;;;12.10;99.90;;;;;;5031094;28;20033;-86
2021/10/31 01:21:18;;;;;;;23.13;12.30;;;12.00;99.90;;;;;;5008409;28;20030;-86
2021/10/31 01:23:52;;;;;;;20.00;11.30;;;12.00;99.90;;;;;;5038766;28;20045;-86
2021/10/31 01:26:37;;;;;;;22.25;12.15;;;12.00;99.90;;;;;;5011005;28;20057;-86
2021/10/31 01:29:05;;;;;;;18.73;11.02;;;11.90;99.90;;;;;;5029961;28;20156;-86
2021/10/31 01:32:09;;;;;;;22.80;12.48;;;11.90;99.90;;;;;;5014221;28;20056;-86
2021/10/31 01:34:52;;;;;;;23.30;12.27;;;11.90;99.90;;;;;;4936082;28;20023;-86
2021/10/31 01:37:28;;;;;;;24.17;11.85;;;11.90;99.90;;;;;;5034191;28;20025;-86
2021/10/31 01:40:07;;;;;;;19.30;10.95;;;11.90;99.90;;;;;;5033626;28;20026;-86
2021/10/31 01:43:01;;;;;;;19.85;11.25;;;11.80;99.90;;;;;;5014468;28;20036;-85
2021/10/31 01:45:49;;;;;;;25.90;11.98;;;11.80;99.90;;;;;;5031358;28;20033;-86
2021/10/31 01:48:42;;;;;;;23.38;11.35;;;11.80;99.90;;;;;;5017464;28;20024;-85
2021/10/31 01:51:15;;;;;;;21.83;11.45;;;11.80;99.90;;;;;;5011288;28;20041;-87
2021/10/31 01:54:01;;;;;;;22.52;11.85;;;11.80;99.90;;;;;;5011675;28;20489;-86
2021/10/31 01:56:28;;;;;;;22.52;11.27;;;11.80;99.90;;;;;;5008854;28;20032;-86
2021/10/31 01:59:20;;;;;;;21.38;11.68;;;11.80;99.90;;;;;;5013610;28;20069;-87
2021/10/31 02:01:46;;;;;;;26.27;12.40;;;11.80;99.90;;;;;;5031615;28;20417;-86
2021/10/31 02:04:14;;;;;;;19.60;10.77;;;11.80;99.90;;;;;;4981036;28;20034;-86
2021/10/31 02:06:46;;;;;;;23.38;12.10;;;11.80;99.90;;;;;;5016627;28;20136;-86
2021/10/31 02:09:16;;;;;;;19.20;11.43;;;11.80;99.90;;;;;;5045844;28;20022;-86
2021/10/31 02:11:44;;;;;;;19.40;10.98;;;11.70;99.90;;;;;;5023004;28;20028;-86
2021/10/31 02:14:10;;;;;;;20.77;10.48;;;11.80;99.90;;;;;;5019209;28;20091;-87
2021/10/31 02:16:37;;;;;;;17.10;11.00;;;11.80;99.90;;;;;;5001201;28;20025;-87
2021/10/31 02:19:06;;;;;;;21.23;11.30;;;11.80;99.90;;;;;;5019970;28;20052;-86
2021/10/31 02:21:35;;;;;;;21.30;11.43;;;11.70;99.90;;;;;;5034686;28;20584;-86
2021/10/31 02:24:06;;;;;;;17.67;11.20;;;11.70;99.90;;;;;;5025430;28;20025;-86
2021/10/31 02:26:37;;;;;;;18.75;11.55;;;11.70;99.90;;;;;;5020421;28;20119;-86
2021/10/31 02:29:07;;;;;;;22.77;11.32;;;11.70;99.90;;;;;;5016422;28;20426;-86
2021/10/31 02:31:34;;;;;;;18.13;11.00;;;11.70;99.90;;;;;;5020420;28;20473;-86
2021/10/31 02:33:59;;;;;;;20.52;11.40;;;11.70;99.90;;;;;;5016974;28;20033;-86
2021/10/31 02:36:25;;;;;;;21.77;12.10;;;11.70;99.90;;;;;;5015686;28;20025;-86
2021/10/31 02:38:51;;;;;;;23.88;11.65;;;11.70;99.90;;;;;;5003756;28;20021;-87
2021/10/31 02:41:17;;;;;;;18.98;10.75;;;11.70;99.90;;;;;;5034843;28;20053;-86
2021/10/31 02:43:43;;;;;;;21.50;10.82;;;11.60;99.90;;;;;;5018274;28;20029;-86
2021/10/31 02:46:09;;;;;;;21.42;11.88;;;11.60;99.90;;;;;;5000166;28;20501;-86
2021/10/31 02:48:37;;;;;;;19.13;11.23;;;11.60;99.90;;;;;;5035539;28;20033;-86
2021/10/31 02:51:35;;;;;;;17.85;10.40;;;11.60;99.90;;;;;;5022044;28;20049;-85
2021/10/31 02:54:10;;;;;;;22.63;10.98;;;11.60;99.90;;;;;;5047374;28;20029;-86
2021/10/31 02:56:42;;;;;;;20.95;10.73;;;11.60;99.90;;;;;;5016513;28;20033;-86
2021/10/31 02:59:20;;;;;;;19.33;10.40;;;11.50;99.90;;;;;;5018098;28;20088;-87
2021/10/31 03:01:47;;;;;;;19.08;10.98;;;11.50;99.90;;;;;;5016281;28;20155;-87
2021/10/31 03:04:18;;;;;;;17.52;10.77;;;11.50;99.90;;;;;;5016708;28;20068;-87
2021/10/31 03:06:44;;;;;;;16.42;9.88;;;11.50;99.90;;;;;;5034056;28;20029;-87
2021/10/31 03:09:11;;;;;;;19.45;10.35;;;11.50;99.90;;;;;;5002277;28;20038;-86
2021/10/31 03:11:36;;;;;;;24.02;11.57;;;11.50;99.90;;;;;;5019256;28;20041;-86
2021/10/31 03:14:02;;;;;;;18.13;10.48;;;11.50;99.90;;;;;;4992913;28;20037;-86
2021/10/31 03:16:28;;;;;;;19.42;10.60;;;11.40;99.90;;;;;;5016894;28;20406;-87
2021/10/31 03:18:53;;;;;;;16.15;10.10;;;11.40;99.90;;;;;;5008041;28;20388;-86
2021/10/31 03:21:19;;;;;;;16.92;10.45;;;11.40;99.90;;;;;;5002069;28;20028;-86
2021/10/31 03:23:45;;;;;;;19.50;11.50;;;11.40;99.90;;;;;;5000612;28;20220;-87
2021/10/31 03:26:11;;;;;;;19.95;11.38;;;11.40;99.90;;;;;;5005645;28;20030;-86
2021/10/31 03:28:36;;;;;;;20.90;11.05;;;11.40;99.90;;;;;;5020823;28;20036;-86
2021/10/31 03:31:02;;;;;;;17.85;10.75;;;11.40;99.90;;;;;;4999487;28;20088;-87
2021/10/31 03:33:28;;;;;;;20.92;11.43;;;11.40;99.90;;;;;;4983257;28;20586;-86
2021/10/31 03:35:53;;;;;;;15.98;9.98;;;11.40;99.90;;;;;;5023720;28;20025;-86
2021/10/31 03:38:20;;;;;;;21.35;11.05;;;11.40;99.90;;;;;;5013370;28;20021;-86
2021/10/31 03:40:47;;;;;;;19.67;11.35;;;11.40;99.90;;;;;;5036351;28;20022;-86
2021/10/31 03:43:12;;;;;;;19.58;11.13;;;11.40;99.90;;;;;;5015992;28;20025;-87
2021/10/31 03:45:40;;;;;;;18.10;10.60;;;11.40;99.90;;;;;;5034565;28;20041;-87
2021/10/31 03:48:06;;;;;;;17.63;10.65;;;11.40;99.90;;;;;;5017457;28;20045;-87
2021/10/31 03:50:32;;;;;;;17.25;10.95;;;11.40;99.90;;;;;;5017069;28;20124;-87
2021/10/31 03:52:57;;;;;;;23.77;12.13;;;11.40;99.90;;;;;;5034815;28;20045;-86
2021/10/31 03:55:23;;;;;;;19.65;11.57;;;11.40;99.90;;;;;;5015021;28;20025;-86
2021/10/31 03:57:49;;;;;;;21.30;12.23;;;11.40;99.90;;;;;;5015831;28;20067;-86
2021/10/31 04:00:15;;;;;;;18.00;11.32;;;11.30;99.90;;;;;;5035808;28;20052;-86
2021/10/31 04:02:42;;;;;;;19.70;11.65;;;11.30;99.90;;;;;;4998267;28;20427;-87
2021/10/31 04:05:09;;;;;;;19.73;11.50;;;11.40;99.90;;;;;;5018636;28;20465;-87
2021/10/31 04:07:35;;;;;;;17.60;10.77;;;11.30;99.90;;;;;;4998265;28;20030;-87
2021/10/31 04:10:02;;;;;;;18.33;11.30;;;11.30;99.90;;;;;;5035979;28;20108;-86
2021/10/31 04:12:27;;;;;;;20.35;11.82;;;11.40;99.90;;;;;;5017902;28;20032;-87
2021/10/31 04:14:53;;;;;;;18.67;10.52;;;11.30;99.90;;;;;;4984999;28;20026;-86
2021/10/31 04:17:19;;;;;;;18.00;11.43;;;11.40;99.90;;;;;;5013508;28;20033;-87
2021/10/31 04:19:44;;;;;;;21.02;12.10;;;11.40;99.90;;;;;;4976825;28;20466;-87
2021/10/31 04:22:10;;;;;;;17.45;10.85;;;11.30;99.90;;;;;;4997353;28;20050;-86
2021/10/31 04:24:35;;;;;;;16.85;10.93;;;11.40;99.90;;;;;;5000734;28;20132;-87
2021/10/31 04:27:02;;;;;;;19.73;11.07;;;11.40;99.90;;;;;;5023384;28;20469;-86
2021/10/31 04:29:29;;;;;;;21.33;11.75;;;11.30;99.90;;;;;;5019662;28;20113;-87
2021/10/31 04:31:55;;;;;;;18.25;10.82;;;11.30;99.90;;;;;;5022886;28;20017;-87
2021/10/31 04:34:21;;;;;;;17.88;11.43;;;11.30;99.90;;;;;;5035054;28;20030;-87
2021/10/31 04:36:47;;;;;;;16.20;10.10;;;11.30;99.90;;;;;;5029159;28;20037;-88
2021/10/31 04:39:14;;;;;;;17.88;10.75;;;11.30;99.90;;;;;;5035213;28;20052;-86
2021/10/31 04:41:43;;;;;;;17.65;10.65;;;11.30;99.90;;;;;;5035969;28;20032;-88
2021/10/31 04:44:09;;;;;;;18.98;11.10;;;11.30;99.90;;;;;;5017544;28;20113;-86
2021/10/31 04:46:34;;;;;;;19.30;10.65;;;11.30;99.90;;;;;;5020893;28;20033;-90
2021/10/31 04:49:00;;;;;;;16.50;11.05;;;11.30;99.90;;;;;;5020825;28;20025;-86
2021/10/31 04:51:25;;;;;;;16.80;11.15;;;11.30;99.90;;;;;;5002017;28;20098;-86
2021/10/31 04:53:51;;;;;;;17.52;11.20;;;11.30;99.90;;;;;;5037700;28;20022;-87
2021/10/31 04:56:22;;;;;;;19.88;11.38;;;11.20;99.90;;;;;;5053950;28;20082;-86
2021/10/31 04:58:49;;;;;;;20.08;11.63;;;11.20;99.90;;;;;;5029899;28;20034;-88
2021/10/31 05:01:14;;;;;;;19.00;11.88;;;11.30;99.90;;;;;;5022574;28;20025;-87
2021/10/31 05:03:40;;;;;;;16.95;11.32;;;11.20;99.90;;;;;;5022195;28;20051;-87
2021/10/31 05:06:06;;;;;;;18.13;10.60;;;11.20;99.90;;;;;;5005115;28;20056;-87
2021/10/31 05:08:31;;;;;;;17.38;11.07;;;11.20;99.90;;;;;;5006287;28;20093;-87
2021/10/31 05:10:57;;;;;;;17.48;11.32;;;11.30;99.90;;;;;;5022577;28;20033;-87
2021/10/31 05:13:22;;;;;;;16.92;10.43;;;11.20;99.90;;;;;;5021995;28;20052;-87
2021/10/31 05:15:48;;;;;;;18.13;10.65;;;11.20;99.90;;;;;;5021305;28;20109;-86
2021/10/31 05:18:14;;;;;;;16.15;10.80;;;11.20;99.90;;;;;;5020795;28;20037;-87
2021/10/31 05:20:40;;;;;;;17.40;10.75;;;11.20;99.90;;;;;;4990264;28;20021;-86
2021/10/31 05:23:05;;;;;;;18.10;10.65;;;11.20;99.90;;;;;;5028792;28;20032;-87
2021/10/31 05:25:31;;;;;;;16.77;11.10;;;11.30;99.90;;;;;;5030403;28;20105;-86
2021/10/31 05:27:57;;;;;;;22.05;12.70;;;11.20;99.90;;;;;;4997202;28;20033;-86
2021/10/31 05:30:22;;;;;;;27.08;12.45;;;11.20;99.90;;;;;;5039014;28;20059;-87
2021/10/31 05:32:49;;;;;;;23.55;12.55;;;11.20;99.90;;;;;;5022046;28;20022;-87
2021/10/31 05:35:15;;;;;;;23.17;12.25;;;11.20;99.90;;;;;;5018626;28;20006;-87
2021/10/31 05:37:42;;;;;;;24.45;12.18;;;11.20;99.90;;;;;;5019653;28;20524;-88
2021/10/31 05:40:11;;;;;;;20.75;11.02;;;11.20;99.90;;;;;;5037329;28;20021;-87
2021/10/31 05:42:37;;;;;;;19.23;11.20;;;11.20;99.90;;;;;;5032553;28;20013;-87
2021/10/31 05:45:05;;;;;;;16.20;10.45;;;11.20;99.90;;;;;;5030305;28;20037;-87
2021/10/31 05:47:31;;;;;;;16.02;11.07;;;11.20;99.90;;;;;;5009498;28;20097;-87
2021/10/31 05:49:57;;;;;;;19.67;11.77;;;11.20;99.90;;;;;;5006892;28;20409;-86
2021/10/31 05:52:23;;;;;;;17.63;10.70;;;11.20;99.90;;;;;;5006084;28;20100;-86
2021/10/31 05:54:49;;;;;;;16.05;11.00;;;11.20;99.90;;;;;;5002733;28;20483;-86
2021/10/31 05:57:14;;;;;;;18.98;11.25;;;11.20;99.90;;;;;;5029919;28;20074;-87
2021/10/31 05:59:40;;;;;;;15.27;10.30;;;11.20;99.90;;;;;;5037699;28;20034;-86
2021/10/31 06:02:09;;;;;;;14.60;10.40;;;11.20;99.90;;;;;;5019066;28;20034;-87
2021/10/31 06:04:35;;;;;;;14.77;10.65;;;11.20;99.90;;;;;;5024244;28;20481;-87
2021/10/31 06:07:01;;;;;;;15.98;10.95;;;11.20;99.90;;;;;;5021950;28;20125;-86
2021/10/31 06:09:26;;;;;;;18.55;12.95;;;11.10;99.90;;;;;;5005883;28;20128;-86
2021/10/31 06:11:52;;;;;;;15.73;11.48;;;11.10;99.90;;;;;;5006232;28;20095;-86
2021/10/31 06:14:18;;;;;;;17.90;10.93;;;11.10;99.90;;;;;;5006546;28;20092;-86
2021/10/31 06:16:43;;;;;;;17.25;11.25;;;11.10;99.90;;;;;;4994754;28;20147;-87
2021/10/31 06:19:09;;;;;;;16.65;12.27;;;11.10;99.90;;;;;;5030491;28;20064;-87
2021/10/31 06:21:34;;;;;;;17.45;12.25;;;11.10;99.90;;;;;;5039905;28;20025;-86
2021/10/31 06:24:00;;;;;;;17.52;11.65;;;11.00;99.90;;;;;;5004259;28;20127;-86
2021/10/31 06:26:26;;;;;;;19.63;12.77;;;11.10;99.90;;;;;;5003700;28;20057;-87
2021/10/31 06:28:51;;;;;;;23.80;12.45;;;11.10;99.90;;;;;;4984378;28;20085;-87
2021/10/31 06:31:17;;;;;;;18.13;12.65;;;11.00;99.90;;;;;;5003568;28;20030;-87
2021/10/31 06:33:43;;;;;;;18.63;11.95;;;11.10;99.90;;;;;;5019301;28;20030;-87
2021/10/31 06:36:09;;;;;;;18.95;11.70;;;11.00;99.90;;;;;;5019594;28;20501;-86
2021/10/31 06:38:35;;;;;;;19.58;13.43;;;11.10;99.90;;;;;;5002424;28;20049;-86
2021/10/31 06:41:01;;;;;;;18.95;13.38;;;11.10;99.90;;;;;;5002483;28;20029;-87
2021/10/31 06:43:26;;;;;;;19.42;13.43;;;11.00;99.90;;;;;;4999688;28;20033;-87
2021/10/31 06:45:52;;;;;;;18.33;12.50;;;11.00;99.90;;;;;;5036602;28;20029;-86
2021/10/31 06:48:18;;;;;;;19.75;13.40;;;11.00;99.90;;;;;;5015123;28;20481;-86
2021/10/31 06:50:43;;;;;;;23.25;15.35;;;11.00;99.90;;;;;;5037876;28;20156;-86
2021/10/31 06:53:09;;;;;;;18.90;13.70;;;11.00;99.90;;;;;;5019027;28;20018;-86
2021/10/31 06:55:35;;;;;;;22.23;13.77;;;11.10;99.90;;;;;;5001193;28;20034;-86
2021/10/31 06:58:01;;;;;;;17.73;12.68;;;11.10;99.90;;;;;;5002477;28;20045;-86
2021/10/31 07:00:26;;;;;;;16.95;12.27;;;11.10;99.90;;;;;;5018750;28;20396;-87
2021/10/31 07:02:52;;;;;;;17.80;12.43;;;11.10;99.90;;;;;;5019077;28;20021;-86
2021/10/31 07:05:18;;;;;;;18.00;12.98;;;11.10;99.90;;;;;;5019061;28;20112;-86
2021/10/31 07:07:44;;;;;;;17.60;12.13;;;11.10;99.90;;;;;;4999277;28;20045;-87
2021/10/31 07:10:13;;;;;;;20.67;13.93;;;11.10;99.90;;;;;;4999491;28;20030;-86
2021/10/31 07:12:39;;;;;;;20.85;13.60;;;11.10;99.90;;;;;;5000113;28;20052;-86
2021/10/31 07:15:06;;;;;;;19.60;12.80;;;11.10;99.90;;;;;;5018778;28;20075;-86
2021/10/31 07:17:31;;;;;;;15.10;10.75;;;11.10;99.90;;;;;;5018503;28;20431;-87
2021/10/31 07:19:57;;;;;;;14.05;10.68;;;11.10;99.90;;;;;;5019020;28;20038;-86
2021/10/31 07:22:22;;;;;;;16.42;11.82;;;11.10;99.90;;;;;;5018676;28;20104;-86
2021/10/31 07:24:49;;;;;;;17.13;11.90;;;11.10;99.90;;;;;;5015759;28;20025;-86
2021/10/31 07:27:15;;;;;;;18.73;12.23;;;11.10;99.90;;;;;;5018614;28;20033;-86
2021/10/31 07:29:41;;;;;;;15.48;10.95;;;11.10;99.90;;;;;;5018170;28;20025;-86
2021/10/31 07:32:07;;;;;;;15.55;11.30;;;11.20;99.90;;;;;;5001534;28;20460;-87
2021/10/31 07:34:33;;;;;;;16.98;11.68;;;11.20;99.90;;;;;;5035573;28;20040;-87
2021/10/31 07:36:58;;;;;;;17.58;12.38;;;11.20;99.90;;;;;;5018055;28;20033;-87
2021/10/31 07:39:24;;;;;;;16.75;12.25;;;11.20;99.90;;;;;;5017880;28;20036;-86
2021/10/31 07:41:50;;;;;;;17.85;12.02;;;11.20;99.90;;;;;;5034846;28;20029;-86
2021/10/31 07:44:16;;;;;;;16.05;11.38;;;11.20;99.90;;;;;;4998417;28;20113;-87
2021/10/31 07:46:42;;;;;;;16.27;11.50;;;11.20;99.90;;;;;;5001671;28;20068;-87
2021/10/31 07:49:10;;;;;;;17.50;10.80;;;11.20;99.90;;;;;;5017754;28;20130;-87
2021/10/31 07:51:35;;;;;;;16.33;11.63;;;11.20;99.90;;;;;;5017802;28;20037;-86
2021/10/31 07:54:01;;;;;;;17.38;11.77;;;11.20;99.90;;;;;;5001371;28;20389;-87
2021/10/31 07:56:31;;;;;;;17.13;11.43;;;11.20;99.90;;;;;;4998318;28;20119;-86
2021/10/31 07:58:56;;;;;;;16.25;11.65;;;11.20;99.90;;;;;;5001530;28;20105;-87
2021/10/31 08:01:23;;;;;;;14.95;11.25;;;11.30;99.90;;;;;;5017926;28;20040;-87
2021/10/31 08:03:50;;;;;;;17.90;12.10;;;11.20;99.90;;;;;;5001183;28;20064;-87
2021/10/31 08:06:17;;;;;;;14.63;10.95;;;11.30;99.90;;;;;;5017340;28;20060;-86
2021/10/31 08:08:42;;;;;;;14.82;11.75;;;11.30;99.90;;;;;;4997814;28;20030;-86
2021/10/31 08:11:08;;;;;;;16.45;11.98;;;11.30;99.90;;;;;;5017465;28;20014;-86
2021/10/31 08:13:34;;;;;;;16.40;11.98;;;11.30;99.90;;;;;;5018150;28;20029;-87
2021/10/31 08:15:59;;;;;;;15.77;11.15;;;11.30;99.90;;;;;;5034579;28;20402;-87
2021/10/31 08:18:25;;;;;;;13.60;9.90;;;11.40;99.90;;;;;;5017738;28;20112;-87
2021/10/31 08:20:53;;;;;;;14.63;10.23;;;11.40;99.90;;;;;;5000921;28;20026;-87
2021/10/31 08:23:19;;;;;;;17.67;12.07;;;11.40;99.90;;;;;;5035087;28;20104;-87
2021/10/31 08:25:46;;;;;;;31.35;15.60;;;11.40;99.90;;;;;;5001110;28;20137;-86
2021/10/31 08:28:13;;;;;;;33.42;15.57;;;11.40;99.90;;;;;;5017191;28;20466;-86
2021/10/31 08:30:44;;;;;;;25.75;13.13;;;11.40;99.90;;;;;;5018313;28;20029;-87
2021/10/31 08:33:23;;;;;;;18.00;11.70;;;11.50;99.90;;;;;;5001308;28;20025;-87
2021/10/31 08:35:50;;;;;;;12.85;10.05;;;11.50;99.90;;;;;;5017391;28;20034;-86
2021/10/31 08:38:16;;;;;;;14.13;10.27;;;11.50;99.90;;;;;;5017061;28;20365;-87
2021/10/31 08:40:43;;;;;;;16.13;10.77;;;11.50;99.90;;;;;;5017032;28;20041;-88
2021/10/31 08:43:10;;;;;;;21.98;11.65;;;11.50;99.90;;;;;;5016701;28;20071;-88
2021/10/31 08:45:38;;;;;;;24.95;13.18;;;11.60;99.90;;;;;;5016926;28;20116;-87
2021/10/31 08:48:04;;;;;;;27.50;13.38;;;11.60;99.90;;;;;;5016846;28;20045;-87
2021/10/31 08:50:30;;;;;;;25.65;13.68;;;11.60;99.90;;;;;;4997528;28;20050;-87
2021/10/31 08:52:56;;;;;;;22.95;11.82;;;11.70;99.90;;;;;;4981665;28;20360;-87
2021/10/31 08:55:22;;;;;;;17.20;10.43;;;11.70;99.90;;;;;;4995331;28;20022;-87
2021/10/31 08:57:47;;;;;;;15.30;10.23;;;11.70;99.90;;;;;;5007504;28;20029;-87
2021/10/31 09:00:13;;;;;;;12.25;8.38;;;11.80;99.90;;;;;;4999104;28;20359;-87
2021/10/31 09:02:40;;;;;;;14.30;9.45;;;11.80;99.90;;;;;;5005911;28;20346;-87
2021/10/31 09:05:07;;;;;;;13.20;8.98;;;11.90;99.90;;;;;;5006054;28;20026;-88
2021/10/31 09:07:33;;;;;;;17.80;10.52;;;11.90;99.90;;;;;;4981024;28;20699;-88
2021/10/31 09:10:00;;;;;;;18.90;10.68;;;11.90;99.90;;;;;;5034866;28;20072;-87
2021/10/31 09:12:27;;;;;;;16.83;9.77;;;11.90;99.90;;;;;;5017302;28;20104;-87
2021/10/31 09:14:53;;;;;;;17.20;9.65;;;12.00;99.90;;;;;;5000036;28;20026;-87
2021/10/31 09:17:19;;;;;;;17.70;10.35;;;12.00;99.90;;;;;;5034108;28;20473;-88
2021/10/31 09:19:45;;;;;;;18.60;9.80;;;12.00;99.90;;;;;;5016931;28;20037;-88
2021/10/31 09:22:12;;;;;;;18.75;9.45;;;12.00;99.90;;;;;;5016932;28;20105;-88
2021/10/31 09:24:37;;;;;;;15.55;9.52;;;12.10;99.90;;;;;;5016768;28;20022;-86
2021/10/31 09:27:04;;;;;;;13.68;8.20;;;12.10;99.90;;;;;;4997025;28;20040;-88
2021/10/31 09:29:30;;;;;;;11.98;8.23;;;12.10;99.90;;;;;;4996776;28;20124;-85
2021/10/31 09:31:57;;;;;;;12.52;8.50;;;12.20;99.90;;;;;;5042631;28;20028;-85
2021/10/31 09:34:24;;;;;;;11.52;8.10;;;12.30;99.90;;;;;;5017153;28;20041;-86
2021/10/31 09:36:50;;;;;;;14.05;8.48;;;12.40;99.90;;;;;;5017348;28;20041;-85
2021/10/31 09:39:16;;;;;;;18.65;8.95;;;12.40;99.90;;;;;;4997998;28;20371;-85
2021/10/31 09:41:42;;;;;;;11.23;7.45;;;12.40;99.90;;;;;;4998451;28;20049;-85
2021/10/31 09:46:41;;;;;;;14.15;8.20;;;12.50;99.90;;;;;;5034630;28;20068;-86
2021/10/31 09:49:08;;;;;;;12.80;7.55;;;12.50;99.90;;;;;;4999977;28;20049;-85
2021/10/31 09:51:34;;;;;;;11.75;7.93;;;12.60;99.90;;;;;;5033943;28;20079;-90
2021/10/31 09:54:00;;;;;;;14.23;7.47;;;12.60;99.90;;;;;;4999917;28;20026;-87
2021/10/31 09:56:27;;;;;;;11.25;7.20;;;12.70;99.90;;;;;;5015747;28;20040;-88
2021/10/31 09:58:57;;;;;;;10.57;7.22;;;12.70;99.90;;;;;;5016051;28;20052;-89
2021/10/31 10:01:48;;;;;;;10.90;7.15;;;12.80;99.90;;;;;;5016069;28;20048;-88
2021/10/31 10:04:31;;;;;;;13.20;7.15;;;12.80;99.90;;;;;;5016120;28;20013;-86
2021/10/31 10:06:59;;;;;;;9.63;6.45;;;12.90;99.90;;;;;;5016292;28;20097;-85
2021/10/31 10:09:26;;;;;;;9.13;6.25;;;13.00;99.90;;;;;;5016389;28;20029;-86
2021/10/31 10:11:52;;;;;;;9.65;6.03;;;13.00;99.90;;;;;;5016768;28;20090;-85
2021/10/31 10:14:25;;;;;;;9.32;5.78;;;13.10;99.90;;;;;;5016437;28;20033;-86
2021/10/31 10:17:14;;;;;;;9.18;5.20;;;13.10;99.90;;;;;;5016189;28;20103;-86
2021/10/31 10:19:59;;;;;;;10.05;5.45;;;13.20;99.90;;;;;;5016663;28;20017;-85
2021/10/31 10:22:26;;;;;;;6.68;5.25;;;13.30;99.90;;;;;;5015505;28;20477;-86
2021/10/31 10:24:59;;;;;;;7.68;4.97;;;13.40;99.90;;;;;;5016278;28;20025;-85
2021/10/31 10:27:29;;;;;;;7.03;4.68;;;13.40;99.90;;;;;;5015306;28;20075;-85
2021/10/31 10:29:57;;;;;;;6.97;4.15;;;13.50;99.90;;;;;;5016310;28;20091;-85
2021/10/31 10:32:27;;;;;;;8.77;5.00;;;13.50;99.90;;;;;;5015696;28;20100;-85
2021/10/31 10:34:55;;;;;;;7.00;4.50;;;13.60;99.90;;;;;;5019520;28;20034;-85
2021/10/31 10:37:33;;;;;;;5.72;4.40;;;13.70;99.90;;;;;;5037071;28;20057;-86
2021/10/31 10:40:02;;;;;;;6.10;4.25;;;13.80;99.90;;;;;;5024534;28;20059;-85
2021/10/31 10:42:43;;;;;;;6.15;4.30;;;13.80;99.90;;;;;;5019141;28;20026;-86
2021/10/31 10:45:16;;;;;;;9.20;4.00;;;13.90;99.90;;;;;;5016077;28;20032;-86
2021/10/31 10:47:47;;;;;;;6.55;3.90;;;14.00;99.90;;;;;;5019834;28;20101;-89
2021/10/31 10:50:18;;;;;;;5.80;3.72;;;14.00;99.90;;;;;;5019119;28;20136;-86
2021/10/31 10:52:45;;;;;;;6.30;3.90;;;14.10;99.90;;;;;;5036901;28;20033;-86
2021/10/31 10:55:17;;;;;;;7.03;3.30;;;14.10;99.90;;;;;;5020022;28;20017;-87
2021/10/31 10:57:45;;;;;;;6.40;3.33;;;14.20;99.90;;;;;;5020269;28;20048;-87
2021/10/31 11:00:18;;;;;;;6.18;2.95;;;14.20;99.90;;;;;;5019823;28;20021;-87
2021/10/31 11:03:15;;;;;;;4.32;2.67;;;14.40;99.90;;;;;;5020114;28;20021;-86
2021/10/31 11:05:44;;;;;;;4.93;2.75;;;14.40;99.90;;;;;;5019531;28;20155;-87
2021/10/31 11:08:23;;;;;;;4.78;2.47;;;14.50;99.90;;;;;;5037268;28;20021;-87
2021/10/31 11:10:54;;;;;;;3.65;2.38;;;14.60;99.90;;;;;;5036768;28;20018;-86
2021/10/31 11:13:20;;;;;;;3.47;2.22;;;14.60;99.90;;;;;;5019207;28;20096;-87
2021/10/31 11:15:45;;;;;;;4.97;2.50;;;14.70;99.90;;;;;;5019148;28;20037;-87
2021/10/31 11:18:11;;;;;;;6.72;2.42;;;14.70;99.90;;;;;;5018767;28;20075;-87
2021/10/31 11:20:41;;;;;;;2.90;1.80;;;14.80;99.90;;;;;;5002342;28;20087;-87
2021/10/31 11:23:09;;;;;;;3.97;2.30;;;14.80;99.90;;;;;;5018958;28;20108;-87
2021/10/31 11:25:36;;;;;;;4.90;2.50;;;14.90;99.90;;;;;;4999805;28;20041;-88
2021/10/31 11:28:04;;;;;;;7.30;2.42;;;15.00;99.90;;;;;;4999549;28;20026;-87
2021/10/31 11:30:32;;;;;;;2.97;2.03;;;15.00;99.90;;;;;;5018989;28;20022;-86
2021/10/31 11:33:00;;;;;;;4.70;2.30;;;15.10;99.90;;;;;;5040109;28;20025;-87
2021/10/31 11:35:27;;;;;;;4.38;2.30;;;15.20;99.90;;;;;;5039559;28;20033;-87
2021/10/31 11:38:05;;;;;;;4.13;2.40;;;15.20;98.80;;;;;;5022868;28;20028;-87
2021/10/31 11:40:41;;;;;;;4.20;2.22;;;15.10;99.40;;;;;;5019092;28;20390;-88
2021/10/31 11:43:30;;;;;;;4.05;2.63;;;15.20;99.90;;;;;;5036213;28;20021;-87
2021/10/31 11:45:57;;;;;;;3.85;2.22;;;15.20;99.90;;;;;;5017924;28;20029;-87
2021/10/31 11:48:29;;;;;;;4.15;2.50;;;15.20;99.80;;;;;;5018593;28;20010;-88
2021/10/31 11:51:01;;;;;;;4.28;2.70;;;15.30;99.90;;;;;;5019267;28;20045;-88
2021/10/31 11:53:30;;;;;;;4.20;2.10;;;15.30;99.90;;;;;;5019134;28;20014;-88
2021/10/31 11:56:14;;;;;;;6.22;3.00;;;15.30;99.90;;;;;;5018840;28;20053;-88
2021/10/31 11:58:46;;;;;;;5.18;2.10;;;15.30;99.90;;;;;;5004680;28;20025;-89
2021/10/31 12:01:21;;;;;;;3.58;2.00;;;15.30;99.90;;;;;;5019482;28;20037;-88
2021/10/31 12:03:52;;;;;;;3.17;1.80;;;15.40;99.90;;;;;;5040452;28;20072;-88
2021/10/31 12:06:21;;;;;;;3.17;2.03;;;15.40;99.90;;;;;;5035720;28;20112;-87
2021/10/31 12:08:48;;;;;;;3.95;2.00;;;15.40;99.90;;;;;;5031948;28;20033;-88
2021/10/31 12:11:15;;;;;;;2.45;1.90;;;15.50;99.90;;;;;;5018541;28;20478;-88
2021/10/31 12:13:43;;;;;;;3.22;2.10;;;15.50;99.90;;;;;;5035982;28;20056;-88
2021/10/31 12:16:17;;;;;;;2.22;1.65;;;15.50;99.90;;;;;;5018001;28;20080;-90
2021/10/31 12:18:56;;;;;;;4.00;2.15;;;15.60;99.90;;;;;;5036913;28;20039;-90
2021/10/31 12:21:28;;;;;;;3.47;2.00;;;15.60;99.90;;;;;;5019431;28;20033;-89
2021/10/31 12:24:07;;;;;;;3.10;1.98;;;15.60;99.90;;;;;;5037018;28;20026;-90
2021/10/31 12:26:45;;;;;;;3.03;1.95;;;15.60;99.90;;;;;;5018798;28;20033;-90
2021/10/31 12:29:17;;;;;;;3.03;1.77;;;15.70;99.90;;;;;;5035922;28;20028;-91
2021/10/31 12:32:01;;;;;;;5.28;1.90;;;15.70;99.90;;;;;;5004432;28;20025;-88
2021/10/31 12:34:42;;;;;;;2.72;1.90;;;15.70;99.90;;;;;;5037053;28;20535;-89
2021/10/31 12:37:24;;;;;;;3.67;2.08;;;15.80;99.90;;;;;;5019450;28;20075;-87
2021/10/31 12:39:51;;;;;;;3.60;2.00;;;15.80;99.90;;;;;;5005614;28;20485;-88
2021/10/31 12:42:30;;;;;;;3.90;1.40;;;15.80;99.90;;;;;;5018631;28;20462;-88
2021/10/31 12:45:02;;;;;;;2.00;1.58;;;15.90;99.90;;;;;;5006545;28;20105;-87